createdAt,value
2023-04-15T00:01:10.218Z,7.74
2023-04-15T00:03:37.364Z,7.66
2023-04-15T00:06:04.485Z,7.69
2023-04-15T00:08:31.229Z,7.66
2023-04-15T00:11:02.697Z,7.49
2023-04-15T00:13:29.828Z,7.59
2023-04-15T00:15:56.496Z,7.57
2023-04-15T00:18:24.768Z,7.57
2023-04-15T00:20:52.689Z,7.53
2023-04-15T00:23:19.364Z,7.31
2023-04-15T00:25:46.929Z,7.39
2023-04-15T00:28:13.953Z,7.35
2023-04-15T00:30:40.550Z,6.92
2023-04-15T00:33:07.991Z,7.37
2023-04-15T00:35:35.871Z,7.22
2023-04-15T00:38:02.488Z,6.90
2023-04-15T00:40:29.151Z,7.10
2023-04-15T00:42:55.772Z,7.27
2023-04-15T00:45:22.746Z,7.01
2023-04-15T00:47:49.752Z,7.13
2023-04-15T00:50:16.503Z,7.19
2023-04-15T00:52:43.084Z,7.01
2023-04-15T00:55:10.212Z,6.97
2023-04-15T00:57:38.944Z,7.04
2023-04-15T01:00:08.030Z,7.09
2023-04-15T01:02:36.523Z,7.15
2023-04-15T01:05:05.504Z,7.14
2023-04-15T01:07:32.404Z,7.05
2023-04-15T01:09:59.522Z,7.10
2023-04-15T01:12:27.354Z,7.00
2023-04-15T01:14:55.056Z,6.83
2023-04-15T01:17:21.802Z,6.99
2023-04-15T01:19:48.944Z,6.86
2023-04-15T01:22:16.168Z,6.88
2023-04-15T01:24:52.346Z,6.95
2023-04-15T01:27:19.543Z,6.83
2023-04-15T01:29:46.421Z,6.77
2023-04-15T01:32:13.124Z,6.78
2023-04-15T01:34:39.702Z,6.87
2023-04-15T01:37:06.955Z,6.80
2023-04-15T01:39:33.780Z,6.72
2023-04-15T01:42:00.425Z,6.66
2023-04-15T01:44:27.705Z,6.61
2023-04-15T01:46:54.684Z,6.65
2023-04-15T01:49:21.281Z,6.66
2023-04-15T01:51:48.094Z,6.63
2023-04-15T01:54:14.829Z,6.55
2023-04-15T01:56:41.421Z,6.51
2023-04-15T01:59:08.664Z,6.54
2023-04-15T02:01:35.497Z,6.56
2023-04-15T02:04:02.252Z,6.46
2023-04-15T02:06:28.960Z,6.54
2023-04-15T02:08:55.634Z,6.53
2023-04-15T02:11:23.234Z,6.49
2023-04-15T02:13:49.971Z,6.33
2023-04-15T02:16:19.885Z,6.50
2023-04-15T02:18:47.088Z,6.50
2023-04-15T02:21:14.237Z,6.40
2023-04-15T02:23:41.203Z,6.33
2023-04-15T02:26:08.194Z,6.40
2023-04-15T02:28:34.956Z,6.31
2023-04-15T02:31:09.664Z,6.35
2023-04-15T02:33:37.834Z,6.32
2023-04-15T02:36:04.900Z,6.38
2023-04-15T02:38:32.072Z,6.39
2023-04-15T02:40:58.780Z,6.42
2023-04-15T02:43:25.389Z,6.37
2023-04-15T02:45:52.560Z,6.23
2023-04-15T02:48:20.406Z,6.31
2023-04-15T02:50:48.062Z,6.16
2023-04-15T02:53:14.944Z,6.33
2023-04-15T02:55:42.838Z,6.25
2023-04-15T02:58:09.642Z,6.11
2023-04-15T03:00:36.382Z,6.32
2023-04-15T03:03:04.518Z,6.38
2023-04-15T03:05:31.653Z,6.36
2023-04-15T03:07:58.312Z,6.28
2023-04-15T03:10:25.478Z,6.29
2023-04-15T03:12:52.144Z,6.28
2023-04-15T03:15:19.171Z,6.25
2023-04-15T03:17:46.047Z,6.27
2023-04-15T03:20:14.493Z,6.22
2023-04-15T03:22:41.305Z,6.05
2023-04-15T03:25:08.308Z,6.14
2023-04-15T03:27:34.913Z,6.06
2023-04-15T03:30:01.769Z,6.17
2023-04-15T03:32:29.061Z,5.99
2023-04-15T03:34:55.765Z,6.02
2023-04-15T03:37:22.438Z,6.12
2023-04-15T03:39:49.069Z,6.10
2023-04-15T03:42:15.726Z,5.84
2023-04-15T03:44:42.430Z,5.87
2023-04-15T03:47:09.207Z,6.01
2023-04-15T03:49:36.888Z,5.86
2023-04-15T03:52:03.581Z,6.01
2023-04-15T03:54:30.411Z,5.99
2023-04-15T03:56:57.722Z,5.91
2023-04-15T03:59:24.501Z,5.75
2023-04-15T04:01:51.433Z,5.92
2023-04-15T04:04:18.155Z,5.93
2023-04-15T04:06:45.028Z,5.89
2023-04-15T04:09:11.759Z,5.82
2023-04-15T04:11:38.314Z,5.84
2023-04-15T04:14:05.047Z,5.77
2023-04-15T04:16:31.740Z,5.77
2023-04-15T04:18:58.359Z,5.86
2023-04-15T04:21:25.241Z,5.78
2023-04-15T04:23:52.188Z,5.60
2023-04-15T04:26:19.780Z,5.77
2023-04-15T04:28:46.681Z,5.72
2023-04-15T04:31:13.454Z,5.75
2023-04-15T04:33:40.431Z,5.57
2023-04-15T04:36:07.331Z,5.71
2023-04-15T04:38:34.076Z,5.52
2023-04-15T04:41:01.032Z,5.66
2023-04-15T04:43:27.671Z,5.61
2023-04-15T04:45:54.459Z,5.61
2023-04-15T04:48:21.286Z,5.62
2023-04-15T04:50:48.230Z,5.63
2023-04-15T04:53:15.150Z,5.56
2023-04-15T04:55:41.724Z,5.61
2023-04-15T04:58:08.415Z,5.60
2023-04-15T05:00:35.087Z,5.66
2023-04-15T05:03:01.926Z,5.58
2023-04-15T05:05:28.738Z,5.54
2023-04-15T05:07:55.657Z,5.35
2023-04-15T05:10:22.267Z,5.64
2023-04-15T05:12:49.208Z,5.83
2023-04-15T05:15:15.923Z,5.95
2023-04-15T05:17:42.639Z,6.14
2023-04-15T05:20:10.411Z,6.39
2023-04-15T05:22:37.334Z,6.72
2023-04-15T05:25:04.290Z,6.89
2023-04-15T05:27:30.943Z,6.94
2023-04-15T05:29:57.560Z,7.22
2023-04-15T05:32:24.384Z,7.30
2023-04-15T05:34:51.471Z,7.37
2023-04-15T05:37:20.869Z,7.67
2023-04-15T05:39:48.333Z,7.90
2023-04-15T05:42:15.821Z,7.93
2023-04-15T05:44:42.748Z,8.07
2023-04-15T05:47:10.322Z,8.26
2023-04-15T05:49:37.247Z,8.23
2023-04-15T05:52:04.192Z,8.41
2023-04-15T05:54:31.283Z,8.34
2023-04-15T05:56:58.554Z,8.50
2023-04-15T05:59:25.279Z,8.47
2023-04-15T06:01:52.350Z,8.51
2023-04-15T06:04:19.331Z,8.54
2023-04-15T06:06:46.320Z,8.64
2023-04-15T06:09:12.902Z,8.35
2023-04-15T06:11:41.325Z,8.73
2023-04-15T06:14:08.349Z,8.80
2023-04-15T06:16:36.831Z,8.89
2023-04-15T06:19:03.954Z,8.84
2023-04-15T06:21:31.521Z,8.84
2023-04-15T06:24:01.334Z,8.92
2023-04-15T06:26:28.282Z,8.95
2023-04-15T06:28:55.688Z,9.16
2023-04-15T06:31:22.477Z,9.24
2023-04-15T06:33:49.261Z,9.27
2023-04-15T06:36:16.389Z,9.55
2023-04-15T06:38:42.997Z,9.52
2023-04-15T06:41:09.951Z,9.82
2023-04-15T06:43:36.837Z,9.88
2023-04-15T06:46:03.708Z,10.07
2023-04-15T06:48:30.475Z,10.22
2023-04-15T06:50:58.373Z,10.14
2023-04-15T06:53:28.303Z,10.19
2023-04-15T06:55:55.327Z,10.13
2023-04-15T06:58:22.450Z,10.03
2023-04-15T07:00:49.387Z,10.01
2023-04-15T07:03:16.342Z,9.93
2023-04-15T07:05:44.865Z,9.62
2023-04-15T07:08:11.552Z,9.78
2023-04-15T07:10:38.293Z,9.87
2023-04-15T07:13:05.934Z,9.93
2023-04-15T07:15:32.607Z,9.88
2023-04-15T07:17:59.509Z,9.83
2023-04-15T07:20:26.396Z,9.93
2023-04-15T07:22:53.221Z,9.87
2023-04-15T07:25:20.033Z,9.68
2023-04-15T07:27:47.466Z,9.82
2023-04-15T07:30:14.287Z,9.80
2023-04-15T07:32:41.920Z,9.76
2023-04-15T07:35:09.750Z,9.77
2023-04-15T07:37:36.587Z,9.65
2023-04-15T07:40:07.164Z,9.76
2023-04-15T07:42:34.729Z,9.43
2023-04-15T07:45:01.607Z,9.54
2023-04-15T07:47:28.668Z,9.70
2023-04-15T07:49:55.429Z,9.60
2023-04-15T07:52:22.292Z,9.78
2023-04-15T07:54:49.252Z,9.82
2023-04-15T07:57:17.083Z,9.84
2023-04-15T07:59:43.753Z,9.78
2023-04-15T08:02:12.063Z,9.73
2023-04-15T08:04:39.494Z,9.62
2023-04-15T08:07:06.308Z,9.86
2023-04-15T08:09:33.129Z,9.87
2023-04-15T08:11:59.991Z,9.87
2023-04-15T08:14:27.061Z,9.94
2023-04-15T08:16:53.771Z,9.71
2023-04-15T08:19:21.220Z,9.73
2023-04-15T08:21:47.864Z,9.80
2023-04-15T08:24:14.616Z,9.64
2023-04-15T08:26:42.047Z,9.63
2023-04-15T08:29:09.261Z,9.54
2023-04-15T08:31:36.128Z,9.47
2023-04-15T08:34:03.564Z,9.25
2023-04-15T08:36:30.899Z,9.64
2023-04-15T08:38:57.597Z,9.35
2023-04-15T08:41:25.742Z,9.64
2023-04-15T08:43:54.915Z,9.66
2023-04-15T08:46:22.820Z,9.60
2023-04-15T08:48:50.387Z,9.61
2023-04-15T08:51:18.306Z,9.54
2023-04-15T08:53:46.605Z,9.42
2023-04-15T08:56:15.908Z,9.56
2023-04-15T08:58:46.787Z,9.47
2023-04-15T09:01:13.657Z,9.46
2023-04-15T09:03:40.819Z,9.51
2023-04-15T09:06:07.701Z,9.51
2023-04-15T09:08:35.880Z,9.27
2023-04-15T09:11:05.900Z,9.55
2023-04-15T09:13:32.689Z,9.53
2023-04-15T09:16:03.928Z,9.48
2023-04-15T09:18:36.751Z,9.25
2023-04-15T09:21:11.635Z,9.62
2023-04-15T09:23:40.562Z,9.74
2023-04-15T09:26:07.790Z,9.54
2023-04-15T09:28:42.574Z,9.64
2023-04-15T09:31:10.456Z,9.46
2023-04-15T09:33:55.068Z,9.61
2023-04-15T09:36:21.654Z,9.65
2023-04-15T09:38:59.136Z,9.70
2023-04-15T09:41:26.469Z,9.90
2023-04-15T09:43:53.665Z,9.89
2023-04-15T09:46:21.201Z,9.77
2023-04-15T09:49:07.778Z,10.09
2023-04-15T09:51:35.965Z,10.24
2023-04-15T09:54:02.910Z,10.21
2023-04-15T09:56:37.463Z,9.87
2023-04-15T09:59:05.595Z,10.10
2023-04-15T10:01:32.656Z,9.78
2023-04-15T10:04:02.391Z,10.01
2023-04-15T10:06:30.439Z,9.91
2023-04-15T10:09:01.657Z,10.18
2023-04-15T10:11:30.445Z,10.17
2023-04-15T10:13:58.623Z,10.14
2023-04-15T10:16:28.762Z,10.22
2023-04-15T10:18:56.937Z,10.28
2023-04-15T10:21:24.013Z,9.69
2023-04-15T10:23:51.438Z,9.90
2023-04-15T10:26:18.582Z,10.02
2023-04-15T10:28:47.327Z,10.22
2023-04-15T10:31:17.392Z,10.28
2023-04-15T10:33:44.806Z,9.92
2023-04-15T10:36:12.595Z,10.24
2023-04-15T10:38:48.378Z,10.45
2023-04-15T10:41:34.572Z,10.48
2023-04-15T10:44:03.507Z,10.33
2023-04-15T10:46:44.115Z,10.26
2023-04-15T10:49:25.001Z,10.24
2023-04-15T10:51:53.792Z,10.24
2023-04-15T10:54:27.084Z,10.22
2023-04-15T10:57:06.598Z,10.26
2023-04-15T10:59:37.329Z,10.28
2023-04-15T11:02:06.796Z,10.31
2023-04-15T11:04:58.731Z,10.33
2023-04-15T11:07:48.485Z,10.37
2023-04-15T11:10:18.100Z,10.37
2023-04-15T11:12:45.638Z,10.32
2023-04-15T11:15:35.276Z,10.31
2023-04-15T11:18:11.250Z,10.27
2023-04-15T11:20:40.481Z,10.33
2023-04-15T11:23:13.890Z,10.28
2023-04-15T11:25:44.232Z,10.31
2023-04-15T11:28:12.139Z,10.05
2023-04-15T11:30:40.139Z,10.07
2023-04-15T11:33:09.347Z,10.25
2023-04-15T11:35:36.331Z,10.21
2023-04-15T11:38:04.545Z,10.15
2023-04-15T11:40:33.506Z,10.20
2023-04-15T11:43:21.099Z,10.17
2023-04-15T11:45:49.144Z,10.18
2023-04-15T11:48:15.859Z,10.54
2023-04-15T11:50:42.479Z,10.61
2023-04-15T11:53:13.080Z,10.69
2023-04-15T11:55:47.172Z,10.71
2023-04-15T11:58:17.123Z,10.61
2023-04-15T12:01:04.740Z,10.53
2023-04-15T12:03:37.874Z,10.45
2023-04-15T12:06:19.409Z,10.28
2023-04-15T12:08:56.356Z,10.38
2023-04-15T12:11:47.483Z,10.36
2023-04-15T12:14:24.669Z,10.36
2023-04-15T12:16:58.338Z,10.30
2023-04-15T12:19:28.825Z,10.55
2023-04-15T12:22:01.512Z,10.57
2023-04-15T12:24:31.459Z,10.51
2023-04-15T12:27:01.991Z,10.62
2023-04-15T12:29:29.194Z,10.72
2023-04-15T12:31:58.330Z,10.68
2023-04-15T12:34:29.630Z,10.74
2023-04-15T12:36:57.907Z,10.79
2023-04-15T12:39:27.657Z,10.73
2023-04-15T12:41:57.726Z,10.57
2023-04-15T12:44:25.121Z,10.59
2023-04-15T12:46:53.621Z,10.50
2023-04-15T12:49:24.712Z,10.58
2023-04-15T12:51:53.971Z,10.58
2023-04-15T12:54:21.712Z,10.43
2023-04-15T12:56:50.110Z,10.21
2023-04-15T12:59:20.322Z,10.38
2023-04-15T13:01:48.797Z,10.28
2023-04-15T13:04:16.476Z,10.28
2023-04-15T13:06:43.589Z,10.35
2023-04-15T13:09:10.823Z,10.22
2023-04-15T13:11:37.588Z,10.26
2023-04-15T13:14:06.900Z,10.30
2023-04-15T13:16:34.685Z,10.30
2023-04-15T13:19:02.589Z,10.26
2023-04-15T13:21:31.311Z,10.11
2023-04-15T13:23:58.082Z,10.14
2023-04-15T13:26:25.080Z,9.96
2023-04-15T13:28:52.031Z,9.90
2023-04-15T13:31:18.765Z,9.98
2023-04-15T13:33:45.767Z,9.96
2023-04-15T13:36:12.379Z,9.94
2023-04-15T13:38:39.073Z,9.58
2023-04-15T13:41:06.066Z,9.82
2023-04-15T13:43:34.295Z,9.82
2023-04-15T13:46:01.643Z,9.79
2023-04-15T13:48:28.870Z,9.64
2023-04-15T13:50:55.441Z,9.72
2023-04-15T13:53:33.912Z,9.63
2023-04-15T13:56:09.166Z,9.52
2023-04-15T13:58:36.455Z,9.78
2023-04-15T14:01:05.660Z,9.55
2023-04-15T14:03:34.635Z,9.69
2023-04-15T14:06:01.708Z,9.77
2023-04-15T14:08:28.403Z,9.80
2023-04-15T14:10:55.068Z,9.80
2023-04-15T14:13:22.022Z,9.39
2023-04-15T14:15:48.826Z,9.49
2023-04-15T14:18:16.227Z,9.79
2023-04-15T14:20:42.934Z,9.67
2023-04-15T14:23:09.572Z,9.65
2023-04-15T14:25:36.260Z,9.82
2023-04-15T14:28:03.553Z,9.78
2023-04-15T14:30:30.646Z,9.51
2023-04-15T14:32:57.485Z,9.76
2023-04-15T14:35:26.656Z,9.72
2023-04-15T14:37:54.037Z,9.73
2023-04-15T14:40:20.810Z,9.77
2023-04-15T14:42:47.689Z,9.74
2023-04-15T14:45:14.469Z,9.70
2023-04-15T14:47:41.330Z,9.60
2023-04-15T14:50:08.574Z,9.36
2023-04-15T14:52:38.913Z,9.56
2023-04-15T14:55:07.413Z,9.48
2023-04-15T14:57:34.294Z,9.54
2023-04-15T15:00:00.892Z,9.52
2023-04-15T15:02:38.462Z,9.56
2023-04-15T15:05:07.766Z,9.52
2023-04-15T15:07:36.088Z,9.31
2023-04-15T15:10:02.941Z,9.55
2023-04-15T15:12:29.620Z,9.55
2023-04-15T15:14:56.351Z,9.39
2023-04-15T15:17:23.147Z,9.31
2023-04-15T15:19:50.015Z,9.27
2023-04-15T15:22:18.076Z,9.42
2023-04-15T15:24:46.121Z,9.34
2023-04-15T15:27:12.919Z,9.34
2023-04-15T15:29:39.714Z,9.21
2023-04-15T15:32:06.477Z,9.25
2023-04-15T15:34:33.200Z,9.34
2023-04-15T15:37:01.123Z,9.41
2023-04-15T15:39:28.079Z,9.25
2023-04-15T15:41:55.220Z,9.32
2023-04-15T15:44:21.954Z,9.14
2023-04-15T15:46:50.064Z,9.08
2023-04-15T15:49:16.920Z,9.15
2023-04-15T15:51:43.574Z,8.93
2023-04-15T15:54:10.467Z,9.08
2023-04-15T15:56:38.624Z,9.07
2023-04-15T15:59:05.505Z,9.06
2023-04-15T16:01:32.405Z,8.93
2023-04-15T16:03:59.626Z,8.84
2023-04-15T16:06:26.708Z,8.98
2023-04-15T16:08:53.604Z,8.95
2023-04-15T16:11:20.408Z,8.98
2023-04-15T16:13:47.038Z,8.57
2023-04-15T16:16:13.783Z,9.00
2023-04-15T16:18:40.665Z,8.85
2023-04-15T16:21:07.331Z,8.96
2023-04-15T16:23:34.038Z,8.89
2023-04-15T16:26:01.062Z,8.89
2023-04-15T16:28:27.723Z,8.90
2023-04-15T16:30:55.192Z,8.73
2023-04-15T16:33:22.039Z,8.73
2023-04-15T16:35:48.749Z,8.81
2023-04-15T16:38:15.641Z,8.75
2023-04-15T16:40:42.640Z,8.74
2023-04-15T16:43:11.356Z,8.80
2023-04-15T16:45:38.660Z,8.79
2023-04-15T16:48:05.900Z,8.88
2023-04-15T16:50:32.724Z,8.82
2023-04-15T16:52:59.527Z,8.90
2023-04-15T16:55:26.356Z,8.69
2023-04-15T16:58:01.991Z,8.84
2023-04-15T17:00:31.741Z,8.69
2023-04-15T17:03:00.133Z,8.67
2023-04-15T17:05:27.731Z,8.77
2023-04-15T17:07:54.823Z,8.84
2023-04-15T17:10:21.614Z,8.83
2023-04-15T17:12:49.759Z,8.80
2023-04-15T17:15:16.658Z,8.82
2023-04-15T17:17:43.420Z,8.80
2023-04-15T17:20:11.226Z,8.76
2023-04-15T17:22:38.158Z,8.82
2023-04-15T17:25:05.255Z,8.71
2023-04-15T17:27:31.958Z,8.74
2023-04-15T17:29:58.666Z,8.81
2023-04-15T17:32:31.611Z,8.81
2023-04-15T17:34:58.483Z,8.63
2023-04-15T17:37:25.473Z,8.57
2023-04-15T17:39:52.349Z,8.69
2023-04-15T17:42:19.019Z,8.61
2023-04-15T17:44:46.057Z,8.36
2023-04-15T17:47:12.673Z,8.74
2023-04-15T17:49:39.481Z,8.63
2023-04-15T17:52:06.625Z,8.58
2023-04-15T17:54:33.230Z,8.71
2023-04-15T17:57:00.210Z,8.71
2023-04-15T17:59:27.954Z,8.76
2023-04-15T18:01:54.934Z,8.69
2023-04-15T18:04:23.999Z,8.62
2023-04-15T18:06:52.807Z,8.69
2023-04-15T18:09:19.448Z,8.31
2023-04-15T18:11:48.393Z,8.63
2023-04-15T18:14:26.589Z,8.61
2023-04-15T18:17:00.043Z,8.64
2023-04-15T18:19:27.399Z,8.58
2023-04-15T18:21:54.413Z,8.61
2023-04-15T18:24:21.087Z,8.72
2023-04-15T18:26:49.139Z,8.72
2023-04-15T18:29:16.394Z,8.51
2023-04-15T18:31:43.239Z,8.68
2023-04-15T18:34:10.256Z,8.57
2023-04-15T18:36:37.010Z,8.73
2023-04-15T18:39:04.454Z,8.66
2023-04-15T18:41:31.409Z,8.65
2023-04-15T18:43:58.065Z,8.76
2023-04-15T18:46:24.687Z,8.76
2023-04-15T18:48:51.782Z,8.61
2023-04-15T18:51:18.458Z,8.72
2023-04-15T18:53:45.047Z,8.79
2023-04-15T18:56:11.806Z,8.80
2023-04-15T18:59:28.634Z,8.75
2023-04-15T19:01:26.483Z,8.69
2023-04-15T19:03:53.288Z,8.84
2023-04-15T19:06:19.949Z,8.76
2023-04-15T19:08:47.261Z,8.77
2023-04-15T19:11:14.095Z,8.80
2023-04-15T19:13:40.845Z,8.62
2023-04-15T19:16:07.746Z,8.59
2023-04-15T19:18:34.425Z,8.73
2023-04-15T19:21:01.084Z,8.74
2023-04-15T19:23:27.894Z,8.66
2023-04-15T19:25:54.495Z,8.78
2023-04-15T19:28:21.180Z,8.71
2023-04-15T19:30:47.897Z,8.67
2023-04-15T19:33:14.536Z,8.60
2023-04-15T19:35:41.313Z,8.78
2023-04-15T19:38:08.144Z,8.69
2023-04-15T19:40:34.753Z,8.75
2023-04-15T19:43:01.327Z,8.75
2023-04-15T19:45:28.607Z,8.64
2023-04-15T19:47:55.363Z,8.72
2023-04-15T19:50:25.977Z,8.80
2023-04-15T19:52:53.532Z,8.72
2023-04-15T19:55:20.459Z,8.74
2023-04-15T19:57:47.124Z,8.77
2023-04-15T20:00:14.029Z,8.63
2023-04-15T20:02:41.009Z,8.76
2023-04-15T20:05:10.001Z,8.76
2023-04-15T20:07:36.933Z,8.83
2023-04-15T20:10:12.470Z,8.74
2023-04-15T20:12:50.271Z,8.83
2023-04-15T20:15:19.088Z,8.78
2023-04-15T20:17:45.998Z,8.72
2023-04-15T20:20:12.753Z,8.84
2023-04-15T20:22:39.403Z,8.79
2023-04-15T20:25:06.654Z,8.72
2023-04-15T20:27:33.452Z,8.87
2023-04-15T20:30:00.462Z,8.88
2023-04-15T20:32:28.485Z,8.78
2023-04-15T20:34:55.331Z,8.95
2023-04-15T20:37:22.447Z,9.02
2023-04-15T20:39:49.298Z,8.96
2023-04-15T20:42:16.162Z,8.96
2023-04-15T20:44:42.908Z,8.91
2023-04-15T20:47:10.084Z,8.95
2023-04-15T20:49:38.524Z,9.08
2023-04-15T20:52:07.012Z,9.06
2023-04-15T20:54:34.127Z,8.98
2023-04-15T20:57:01.770Z,8.97
2023-04-15T20:59:28.737Z,9.10
2023-04-15T21:01:57.163Z,8.99
2023-04-15T21:04:24.548Z,9.10
2023-04-15T21:06:52.338Z,9.15
2023-04-15T21:09:19.335Z,9.16
2023-04-15T21:14:20.524Z,9.14
2023-04-15T21:16:47.263Z,9.03
2023-04-15T21:19:13.926Z,9.18
2023-04-15T21:21:40.975Z,8.98
2023-04-15T21:24:07.924Z,8.90
2023-04-15T21:26:36.094Z,9.14
2023-04-15T21:29:03.388Z,8.81
2023-04-15T21:31:30.609Z,9.17
2023-04-15T21:33:57.440Z,8.90
2023-04-15T21:36:24.251Z,9.15
2023-04-15T21:38:50.862Z,9.16
2023-04-15T21:41:17.620Z,9.22
2023-04-15T21:43:44.571Z,9.18
2023-04-15T21:46:23.229Z,9.26
2023-04-15T21:48:53.041Z,9.23
2023-04-15T21:51:19.669Z,9.28
2023-04-15T21:53:46.379Z,9.22
2023-04-15T21:56:13.171Z,9.28
2023-04-15T21:58:39.853Z,9.14
2023-04-15T22:01:06.629Z,9.19
2023-04-15T22:03:34.702Z,9.03
2023-04-15T22:06:03.129Z,9.13
2023-04-15T22:08:31.002Z,9.04
2023-04-15T22:11:00.672Z,9.13
2023-04-15T22:13:27.359Z,9.16
2023-04-15T22:15:54.023Z,9.17
2023-04-15T22:18:20.725Z,9.11
2023-04-15T22:20:47.445Z,9.18
2023-04-15T22:23:17.456Z,9.17
2023-04-15T22:25:44.579Z,9.14
2023-04-15T22:28:11.305Z,9.20
2023-04-15T22:30:39.450Z,9.21
2023-04-15T22:33:07.476Z,9.03
2023-04-15T22:35:36.183Z,9.21
2023-04-15T22:38:04.147Z,9.22
2023-04-15T22:40:31.121Z,9.19
2023-04-15T22:42:58.005Z,9.24
2023-04-15T22:45:24.732Z,9.31
2023-04-15T22:47:51.539Z,9.22
2023-04-15T22:50:18.292Z,9.30
2023-04-15T22:52:46.218Z,9.28
2023-04-15T22:55:13.348Z,9.41
2023-04-15T22:57:39.929Z,9.19
2023-04-15T23:00:07.556Z,9.39
2023-04-15T23:02:35.139Z,9.46
2023-04-15T23:05:12.532Z,9.38
2023-04-15T23:07:40.198Z,9.39
2023-04-15T23:10:08.890Z,9.45
2023-04-15T23:12:35.556Z,9.28
2023-04-15T23:15:03.792Z,9.28
2023-04-15T23:17:30.496Z,9.48
2023-04-15T23:19:57.106Z,9.50
2023-04-15T23:22:24.070Z,9.54
2023-04-15T23:24:50.664Z,9.53
2023-04-15T23:27:19.044Z,9.36
2023-04-15T23:29:46.196Z,9.44
2023-04-15T23:32:12.780Z,9.40
2023-04-15T23:34:39.396Z,9.39
2023-04-15T23:37:06.208Z,9.34
2023-04-15T23:39:32.969Z,9.34
2023-04-15T23:41:59.621Z,9.27
2023-04-15T23:44:26.467Z,9.34
2023-04-15T23:46:53.242Z,9.34
2023-04-15T23:49:20.609Z,9.25
2023-04-15T23:51:47.755Z,9.41
2023-04-15T23:54:15.064Z,9.38
2023-04-15T23:56:41.726Z,9.29
2023-04-15T23:59:08.996Z,9.40
